Malaga, Spain

11:53 AM CET on February 09, 2016 (GMT +0100)
IALALHAU2 | | Change Station
CLOSE
Current Station
Personal Weather Station
Location: Alhaurin De La Torre, Malaga
Elevation: 360 ft
Nearby Weather Stations

Elev 360 ft 36.66 °N, 4.55 °W | Updated 2 minutes ago

Partly Cloudy
Partly Cloudy
61.0 °F
Feels Like 61.0 °F
N
0.0
Wind Variable Wind from North
Gusts 0.0 mph

Today
High -- | Low -- °F
--% Chance of Precip.
Yesterday
High -- | Low -- °F
Precip. -- in
Pressure 30.36 in
Visibility 6.2 miles
Clouds Few 4000 ft
Dew Point 41 °F
Humidity 50%
Rainfall Not available.
Snow Depth Not available.
8:13 AM 6:51 PM
New Moon, 1% visible
METAR LEMG 091030Z 31013G25KT 260V340 9999 FEW040 17/07 Q1028 NOSIG
Pressure 30.36 in
Visibility 6.2 miles
Clouds Few 4000 ft
Dew Point 41 °F
Humidity 50%
Rainfall Not available.
Snow Depth Not available.
8:13 AM 6:51 PM
New Moon, 1% visible
METAR LEMG 091030Z 31013G25KT 260V340 9999 FEW040 17/07 Q1028 NOSIG

10-Day Weather Forecast

Almanac

Astronomy

Feb. 09, 2016 Rise Set
Actual Time
Civil Twilight
Nautical Twilight
Astronomical Twilight
Moon
Length of Visible Light
Length of Day
Tomorrow will be .
, % of the Moon is Illuminated

Today's Extremes

Country Highs Country Lows

Community

WunderPhotos

Upload Photos

1,891,565 photos uploaded!

WunderBlog® & News

Nearby

Air Quality

  Air Quality AQ Index Pollutant
Not available.

Snow Depth

Station Depth Elevation

Earthquake Activity

City Distance Mag. Time & Date
Minimum magnitude displayed is 2.5.

Coastal Water Temperatures

Place Temperature

Stations

Nearby Weather Stations

Station Location Temp. Windchill Dew Point Humidity Wind Precip. Elev Updated Type